createdAt,value
2023-05-21T00:01:52.488Z,48.70
2023-05-21T00:04:20.568Z,48.80
2023-05-21T00:06:48.544Z,48.90
2023-05-21T00:09:16.796Z,49.00
2023-05-21T00:11:46.034Z,49.00
2023-05-21T00:14:14.273Z,49.10
2023-05-21T00:16:42.704Z,49.00
2023-05-21T00:19:11.195Z,49.10
2023-05-21T00:21:39.565Z,49.20
2023-05-21T00:24:08.529Z,49.20
2023-05-21T00:26:36.688Z,49.30
2023-05-21T00:29:06.279Z,49.30
2023-05-21T00:31:56.794Z,49.40
2023-05-21T00:34:24.739Z,49.30
2023-05-21T00:36:53.774Z,49.40
2023-05-21T00:39:21.664Z,49.40
2023-05-21T00:42:09.798Z,49.40
2023-05-21T00:44:39.389Z,49.50
2023-05-21T00:47:08.163Z,49.60
2023-05-21T00:49:36.449Z,49.50
2023-05-21T00:52:05.357Z,49.60
2023-05-21T00:54:33.648Z,49.70
2023-05-21T00:57:02.556Z,49.80
2023-05-21T00:59:30.800Z,49.80
2023-05-21T01:02:05.601Z,49.90
2023-05-21T01:04:33.756Z,49.90
2023-05-21T01:07:02.201Z,49.90
2023-05-21T01:09:30.165Z,50.00
2023-05-21T01:12:00.863Z,50.00
2023-05-21T01:14:28.819Z,50.10
2023-05-21T01:16:57.086Z,50.10
2023-05-21T01:19:26.681Z,50.20
2023-05-21T01:22:01.460Z,50.30
2023-05-21T01:24:30.765Z,50.30
2023-05-21T01:26:59.996Z,50.30
2023-05-21T01:29:28.017Z,50.30
2023-05-21T01:32:04.010Z,50.30
2023-05-21T01:34:42.787Z,50.60
2023-05-21T01:37:18.505Z,50.60
2023-05-21T01:39:53.249Z,50.60
2023-05-21T01:42:24.709Z,50.70
2023-05-21T01:44:55.856Z,50.70
2023-05-21T01:47:25.428Z,50.60
2023-05-21T01:49:53.768Z,50.70
2023-05-21T01:52:21.813Z,50.70
2023-05-21T01:54:51.338Z,50.80
2023-05-21T01:57:19.694Z,51.00
2023-05-21T01:59:47.930Z,51.00
2023-05-21T02:02:17.365Z,51.10
2023-05-21T02:04:46.451Z,51.20
2023-05-21T02:07:15.325Z,51.20
2023-05-21T02:09:44.606Z,51.20
2023-05-21T02:12:13.902Z,51.30
2023-05-21T02:14:42.634Z,51.40
2023-05-21T02:17:10.876Z,51.30
2023-05-21T02:19:38.806Z,51.40
2023-05-21T02:22:06.967Z,51.50
2023-05-21T02:24:34.864Z,51.50
2023-05-21T02:27:03.115Z,51.50
2023-05-21T02:29:32.398Z,51.50
2023-05-21T02:32:00.770Z,51.60
2023-05-21T02:34:30.862Z,51.60
2023-05-21T02:36:59.040Z,51.70
2023-05-21T02:39:27.157Z,51.70
2023-05-21T02:41:55.868Z,51.70
2023-05-21T02:44:24.028Z,51.70
2023-05-21T02:46:53.477Z,51.80
2023-05-21T02:49:21.705Z,51.90
2023-05-21T02:51:49.737Z,51.90
2023-05-21T02:54:18.148Z,51.90
2023-05-21T02:56:46.075Z,51.90
2023-05-21T02:59:14.260Z,51.90
2023-05-21T03:01:42.340Z,52.00
2023-05-21T03:04:11.906Z,52.00
2023-05-21T03:06:39.908Z,52.10
2023-05-21T03:09:08.385Z,52.10
2023-05-21T03:11:37.039Z,52.20
2023-05-21T03:14:05.050Z,52.10
2023-05-21T03:16:34.710Z,52.20
2023-05-21T03:21:54.633Z,52.20
2023-05-21T03:24:23.117Z,52.30
2023-05-21T03:26:51.135Z,52.30
2023-05-21T03:29:19.385Z,52.40
2023-05-21T03:31:47.847Z,52.40
2023-05-21T03:34:16.623Z,52.40
2023-05-21T03:36:44.793Z,52.50
2023-05-21T03:39:14.570Z,52.50
2023-05-21T03:41:42.666Z,52.60
2023-05-21T03:44:16.551Z,52.50
2023-05-21T03:46:53.256Z,52.60
2023-05-21T03:49:30.008Z,52.60
2023-05-21T03:51:59.554Z,52.70
2023-05-21T03:54:29.571Z,52.70
2023-05-21T03:57:02.418Z,52.80
2023-05-21T03:59:30.718Z,52.70
2023-05-21T04:01:59.677Z,52.80
2023-05-21T04:04:29.734Z,52.80
2023-05-21T04:06:57.713Z,52.80
2023-05-21T04:09:25.890Z,52.80
2023-05-21T04:11:55.209Z,52.90
2023-05-21T04:14:23.966Z,53.00
2023-05-21T04:16:53.506Z,53.00
2023-05-21T04:19:22.910Z,53.00
2023-05-21T04:21:51.193Z,53.10
2023-05-21T04:24:20.000Z,53.00
2023-05-21T04:26:55.938Z,53.10
2023-05-21T04:29:25.966Z,53.10
2023-05-21T04:31:54.073Z,53.10
2023-05-21T04:34:22.179Z,53.20
2023-05-21T04:36:51.930Z,53.20
2023-05-21T04:39:20.088Z,53.30
2023-05-21T04:41:48.389Z,53.40
2023-05-21T04:44:18.432Z,53.40
2023-05-21T04:46:48.932Z,53.40
2023-05-21T04:49:18.812Z,53.40
2023-05-21T04:51:46.767Z,53.40
2023-05-21T04:54:14.914Z,53.40
2023-05-21T04:56:42.815Z,53.40
2023-05-21T04:59:11.554Z,53.40
2023-05-21T05:01:43.901Z,53.40
2023-05-21T05:04:12.221Z,53.60
2023-05-21T05:06:40.267Z,53.50
2023-05-21T05:09:08.831Z,53.60
2023-05-21T05:11:36.876Z,53.60
2023-05-21T05:14:05.705Z,53.60
2023-05-21T05:16:35.678Z,53.60
2023-05-21T05:19:05.170Z,53.70
2023-05-21T05:21:33.329Z,53.70
2023-05-21T05:24:01.675Z,53.60
2023-05-21T05:26:32.701Z,53.70
2023-05-21T05:29:01.466Z,53.70
2023-05-21T05:31:30.086Z,53.70
2023-05-21T05:33:58.478Z,53.70
2023-05-21T05:36:28.221Z,53.70
2023-05-21T05:38:56.370Z,53.80
2023-05-21T05:41:24.557Z,53.80
2023-05-21T05:43:52.487Z,53.80
2023-05-21T05:46:22.953Z,53.80
2023-05-21T05:48:52.442Z,53.80
2023-05-21T05:51:20.566Z,53.80
2023-05-21T05:53:49.823Z,53.80
2023-05-21T05:56:18.235Z,53.80
2023-05-21T05:58:46.284Z,53.80
2023-05-21T06:01:16.504Z,53.80
2023-05-21T06:03:45.530Z,53.80
2023-05-21T06:06:17.190Z,53.80
2023-05-21T06:08:46.246Z,53.80
2023-05-21T06:11:17.260Z,53.80
2023-05-21T06:13:45.854Z,53.80
2023-05-21T06:16:16.019Z,53.80
2023-05-21T06:18:44.140Z,53.80
2023-05-21T06:21:12.288Z,53.80
2023-05-21T06:23:40.521Z,53.80
2023-05-21T06:26:10.800Z,53.80
2023-05-21T06:28:40.120Z,53.80
2023-05-21T06:31:10.058Z,53.90
2023-05-21T06:33:39.630Z,53.80
2023-05-21T06:36:08.455Z,53.90
2023-05-21T06:38:36.538Z,53.90
2023-05-21T06:41:05.120Z,53.80
2023-05-21T06:43:51.618Z,53.80
2023-05-21T06:46:42.342Z,53.80
2023-05-21T06:49:13.475Z,53.70
2023-05-21T06:51:42.375Z,53.70
2023-05-21T06:54:11.901Z,53.70
2023-05-21T06:56:41.719Z,53.60
2023-05-21T06:59:11.925Z,53.60
2023-05-21T07:01:42.656Z,53.60
2023-05-21T07:04:11.160Z,53.60
2023-05-21T07:06:41.658Z,53.50
2023-05-21T07:09:10.295Z,53.60
2023-05-21T07:11:38.975Z,53.50
2023-05-21T07:14:09.715Z,53.50
2023-05-21T07:16:40.341Z,53.50
2023-05-21T07:19:09.156Z,53.40
2023-05-21T07:21:37.560Z,53.40
2023-05-21T07:24:07.573Z,53.40
2023-05-21T07:26:39.153Z,53.40
2023-05-21T07:29:07.197Z,53.30
2023-05-21T07:31:35.595Z,53.20
2023-05-21T07:34:04.901Z,53.20
2023-05-21T07:36:34.545Z,53.20
2023-05-21T07:39:03.453Z,53.20
2023-05-21T07:44:18.765Z,53.20
2023-05-21T07:46:47.640Z,53.10
2023-05-21T07:49:17.399Z,53.10
2023-05-21T07:51:48.517Z,53.10
2023-05-21T07:54:17.083Z,52.90
2023-05-21T07:56:46.004Z,52.90
2023-05-21T07:59:26.554Z,52.80
2023-05-21T08:01:54.700Z,52.80
2023-05-21T08:04:24.633Z,52.70
2023-05-21T08:06:53.715Z,52.60
2023-05-21T08:09:21.782Z,52.60
2023-05-21T08:11:49.819Z,52.50
2023-05-21T08:14:17.759Z,52.60
2023-05-21T08:16:46.181Z,52.40
2023-05-21T08:19:14.482Z,52.40
2023-05-21T08:21:45.088Z,52.30
2023-05-21T08:24:13.409Z,52.30
2023-05-21T08:26:41.434Z,52.20
2023-05-21T08:29:09.563Z,52.20
2023-05-21T08:31:38.744Z,52.30
2023-05-21T08:34:06.811Z,52.30
2023-05-21T08:36:46.052Z,52.20
2023-05-21T08:39:34.316Z,52.10
2023-05-21T08:42:13.006Z,52.00
2023-05-21T08:44:49.131Z,51.80
2023-05-21T08:47:19.796Z,51.70
2023-05-21T08:49:49.523Z,51.70
2023-05-21T08:52:19.203Z,51.40
2023-05-21T08:54:47.714Z,51.20
2023-05-21T08:57:17.016Z,51.00
2023-05-21T08:59:46.959Z,50.80
2023-05-21T09:02:25.030Z,50.90
2023-05-21T09:04:57.156Z,50.70
2023-05-21T09:07:29.206Z,50.50
2023-05-21T09:10:19.306Z,50.20
2023-05-21T09:12:48.799Z,50.00
2023-05-21T09:15:17.319Z,49.70
2023-05-21T09:17:47.947Z,49.60
2023-05-21T09:20:34.050Z,49.40
2023-05-21T09:23:06.765Z,49.60
2023-05-21T09:25:38.801Z,49.40
2023-05-21T09:28:16.440Z,49.60
2023-05-21T09:30:48.631Z,49.50
2023-05-21T09:33:27.070Z,49.50
2023-05-21T09:35:55.349Z,49.20
2023-05-21T09:38:25.704Z,49.50
2023-05-21T09:40:56.916Z,49.60
2023-05-21T09:43:26.255Z,49.60
2023-05-21T09:45:59.683Z,49.70
2023-05-21T09:48:36.662Z,49.80
2023-05-21T09:51:11.216Z,49.30
2023-05-21T09:53:50.589Z,49.30
2023-05-21T09:56:24.616Z,49.00
2023-05-21T09:58:54.730Z,48.90
2023-05-21T10:01:22.941Z,49.00
2023-05-21T10:03:56.317Z,48.70
2023-05-21T10:06:26.973Z,48.70
2023-05-21T10:08:58.106Z,48.40
2023-05-21T10:11:27.984Z,48.40
2023-05-21T10:14:03.285Z,48.10
2023-05-21T10:16:34.208Z,47.50
2023-05-21T10:19:02.759Z,47.40
2023-05-21T10:21:31.803Z,47.30
2023-05-21T10:24:04.163Z,46.90
2023-05-21T10:26:32.500Z,46.70
2023-05-21T10:29:01.464Z,46.60
2023-05-21T10:31:30.379Z,46.50
2023-05-21T10:33:59.231Z,46.30
2023-05-21T10:36:30.919Z,46.40
2023-05-21T10:39:01.305Z,46.40
2023-05-21T10:41:34.254Z,46.10
2023-05-21T10:44:12.120Z,46.00
2023-05-21T10:47:09.258Z,45.60
2023-05-21T10:49:50.512Z,45.20
2023-05-21T10:52:35.919Z,45.40
2023-05-21T10:55:18.041Z,45.50
2023-05-21T10:58:11.923Z,46.10
2023-05-21T11:00:40.706Z,46.10
2023-05-21T11:03:09.721Z,47.80
2023-05-21T11:05:43.331Z,47.80
2023-05-21T11:08:23.516Z,47.10
2023-05-21T11:10:58.301Z,45.70
2023-05-21T11:13:27.171Z,45.70
2023-05-21T11:16:08.519Z,46.00
2023-05-21T11:19:01.533Z,44.20
2023-05-21T11:21:36.040Z,43.60
2023-05-21T11:24:06.601Z,43.10
2023-05-21T11:27:04.506Z,42.90
2023-05-21T11:29:46.092Z,41.10
2023-05-21T11:32:17.638Z,40.10
2023-05-21T11:34:47.186Z,41.00
2023-05-21T11:37:32.101Z,40.70
2023-05-21T11:40:20.947Z,39.10
2023-05-21T11:42:55.014Z,38.00
2023-05-21T11:45:24.691Z,37.90
2023-05-21T11:47:53.621Z,37.40
2023-05-21T11:50:21.910Z,38.00
2023-05-21T11:52:50.951Z,37.60
2023-05-21T11:55:23.707Z,37.10
2023-05-21T11:57:56.332Z,36.40
2023-05-21T12:00:24.627Z,36.30
2023-05-21T12:02:54.244Z,36.40
2023-05-21T12:05:23.336Z,35.80
2023-05-21T12:07:54.085Z,35.30
2023-05-21T12:10:23.197Z,35.00
2023-05-21T12:12:56.361Z,34.60
2023-05-21T12:15:27.809Z,34.40
2023-05-21T12:17:56.790Z,33.90
2023-05-21T12:20:27.973Z,33.40
2023-05-21T12:22:57.908Z,32.40
2023-05-21T12:25:26.248Z,32.10
2023-05-21T12:27:58.761Z,31.60
2023-05-21T12:30:29.313Z,31.20
2023-05-21T12:33:00.500Z,30.90
2023-05-21T12:35:28.789Z,30.80
2023-05-21T12:37:56.844Z,30.60
2023-05-21T12:40:36.874Z,30.60
2023-05-21T12:43:05.632Z,29.90
2023-05-21T12:45:36.903Z,30.30
2023-05-21T12:48:05.221Z,30.00
2023-05-21T12:50:35.542Z,30.00
2023-05-21T12:53:03.882Z,30.00
2023-05-21T12:55:33.009Z,30.10
2023-05-21T12:58:05.381Z,30.20
2023-05-21T13:00:35.453Z,29.80
2023-05-21T13:03:04.567Z,30.20
2023-05-21T13:05:33.042Z,29.50
2023-05-21T13:08:01.184Z,29.40
2023-05-21T13:10:29.234Z,29.70
2023-05-21T13:12:57.386Z,29.30
2023-05-21T13:15:25.279Z,29.60
2023-05-21T13:17:56.817Z,29.20
2023-05-21T13:20:27.568Z,29.00
2023-05-21T13:22:56.271Z,29.10
2023-05-21T13:25:28.402Z,29.20
2023-05-21T13:27:57.290Z,29.40
2023-05-21T13:30:25.364Z,29.30
2023-05-21T13:32:55.164Z,29.40
2023-05-21T13:35:23.427Z,29.30
2023-05-21T13:37:51.491Z,29.00
2023-05-21T13:40:19.747Z,29.00
2023-05-21T13:42:49.006Z,28.70
2023-05-21T13:45:19.139Z,28.70
2023-05-21T13:47:48.299Z,28.70
2023-05-21T13:50:18.366Z,28.70
2023-05-21T13:52:46.996Z,28.60
2023-05-21T13:55:15.856Z,28.50
2023-05-21T13:57:44.334Z,28.50
2023-05-21T14:00:15.311Z,28.40
2023-05-21T14:02:44.422Z,28.40
2023-05-21T14:05:13.386Z,28.50
2023-05-21T14:07:42.988Z,28.60
2023-05-21T14:10:12.178Z,28.60
2023-05-21T14:12:40.557Z,28.70
2023-05-21T14:15:09.475Z,28.90
2023-05-21T14:17:39.960Z,29.00
2023-05-21T14:20:09.693Z,29.00
2023-05-21T14:22:37.687Z,28.90
2023-05-21T14:25:07.949Z,28.80
2023-05-21T14:27:37.957Z,28.90
2023-05-21T14:30:06.973Z,29.00
2023-05-21T14:32:34.899Z,29.00
2023-05-21T14:35:03.299Z,29.00
2023-05-21T14:37:31.248Z,29.10
2023-05-21T14:39:59.347Z,29.10
2023-05-21T14:42:28.616Z,29.20
2023-05-21T14:44:56.718Z,29.30
2023-05-21T14:47:24.690Z,29.30
2023-05-21T14:49:52.716Z,29.40
2023-05-21T14:52:20.694Z,29.30
2023-05-21T14:54:48.753Z,29.30
2023-05-21T14:57:16.917Z,29.50
2023-05-21T14:59:46.342Z,29.80
2023-05-21T15:02:14.811Z,29.90
2023-05-21T15:04:42.743Z,30.00
2023-05-21T15:07:10.952Z,30.30
2023-05-21T15:09:39.172Z,30.50
2023-05-21T15:12:07.547Z,30.70
2023-05-21T15:14:35.472Z,30.70
2023-05-21T15:17:05.104Z,30.70
2023-05-21T15:19:33.486Z,30.40
2023-05-21T15:22:02.666Z,30.10
2023-05-21T15:24:30.766Z,30.00
2023-05-21T15:26:58.743Z,29.90
2023-05-21T15:29:26.789Z,29.90
2023-05-21T15:31:54.914Z,30.00
2023-05-21T15:34:24.279Z,30.00
2023-05-21T15:36:52.880Z,30.10
2023-05-21T15:39:20.864Z,30.20
2023-05-21T15:41:49.006Z,30.30
2023-05-21T15:44:17.130Z,30.50
2023-05-21T15:46:45.221Z,30.70
2023-05-21T15:49:13.528Z,30.70
2023-05-21T15:51:43.107Z,30.90
2023-05-21T15:54:11.159Z,31.20
2023-05-21T15:56:39.350Z,31.30
2023-05-21T15:59:07.461Z,31.40
2023-05-21T16:01:35.593Z,31.60
2023-05-21T16:04:04.332Z,31.90
2023-05-21T16:06:32.442Z,31.90
2023-05-21T16:09:01.949Z,31.90
2023-05-21T16:11:30.192Z,32.10
2023-05-21T16:13:58.358Z,32.20
2023-05-21T16:16:26.671Z,32.30
2023-05-21T16:18:55.082Z,32.30
2023-05-21T16:21:23.166Z,32.40
2023-05-21T16:23:51.435Z,32.60
2023-05-21T16:26:21.464Z,32.70
2023-05-21T16:28:49.827Z,32.80
2023-05-21T16:31:17.885Z,33.20
2023-05-21T16:33:45.851Z,33.20
2023-05-21T16:36:15.057Z,33.30
2023-05-21T16:38:44.608Z,33.30
2023-05-21T16:41:12.621Z,33.30
2023-05-21T16:43:42.127Z,33.30
2023-05-21T16:46:10.167Z,33.20
2023-05-21T16:48:39.294Z,33.10
2023-05-21T16:51:07.416Z,33.10
2023-05-21T16:53:35.378Z,33.10
2023-05-21T16:56:03.259Z,32.80
2023-05-21T16:58:33.145Z,32.90
2023-05-21T17:01:02.703Z,32.80
2023-05-21T17:03:32.798Z,32.80
2023-05-21T17:06:00.932Z,32.80
2023-05-21T17:08:29.030Z,32.90
2023-05-21T17:10:57.061Z,32.80
2023-05-21T17:13:25.209Z,32.70
2023-05-21T17:15:53.341Z,32.60
2023-05-21T17:18:22.856Z,32.70
2023-05-21T17:20:50.820Z,32.50
2023-05-21T17:23:19.278Z,32.50
2023-05-21T17:25:47.301Z,32.60
2023-05-21T17:28:15.519Z,32.70
2023-05-21T17:30:43.454Z,32.80
2023-05-21T17:33:12.200Z,33.00
2023-05-21T17:35:41.643Z,33.00
2023-05-21T17:38:09.502Z,33.10
2023-05-21T17:40:37.704Z,33.20
2023-05-21T17:43:07.404Z,33.30
2023-05-21T17:45:35.862Z,33.40
2023-05-21T17:48:04.213Z,33.50
2023-05-21T17:50:32.550Z,33.60
2023-05-21T17:53:01.829Z,33.70
2023-05-21T17:55:29.792Z,33.80
2023-05-21T17:57:58.187Z,33.90
2023-05-21T18:00:26.079Z,34.00
2023-05-21T18:02:54.257Z,34.10
2023-05-21T18:05:22.861Z,34.20
2023-05-21T18:07:51.162Z,34.30
2023-05-21T18:10:20.610Z,34.40
2023-05-21T18:12:48.629Z,34.50
2023-05-21T18:15:17.153Z,34.50
2023-05-21T18:17:45.426Z,34.70
2023-05-21T18:20:14.851Z,34.70
2023-05-21T18:22:42.838Z,34.90
2023-05-21T18:25:11.252Z,35.00
2023-05-21T18:27:40.687Z,35.10
2023-05-21T18:30:10.181Z,35.30
2023-05-21T18:32:39.307Z,35.40
2023-05-21T18:35:10.655Z,35.60
2023-05-21T18:37:42.105Z,35.70
2023-05-21T18:40:11.601Z,35.80
2023-05-21T18:42:41.264Z,36.10
2023-05-21T18:45:11.172Z,36.40
2023-05-21T18:47:40.527Z,36.50
2023-05-21T18:50:10.544Z,36.60
2023-05-21T18:52:38.679Z,36.70
2023-05-21T18:55:07.843Z,36.80
2023-05-21T18:57:35.860Z,37.10
2023-05-21T19:00:06.949Z,37.20
2023-05-21T19:02:35.150Z,37.40
2023-05-21T19:05:03.154Z,37.40
2023-05-21T19:07:31.101Z,37.50
2023-05-21T19:10:00.207Z,37.60
2023-05-21T19:12:29.380Z,37.70
2023-05-21T19:14:57.382Z,37.80
2023-05-21T19:17:26.874Z,37.90
2023-05-21T19:19:56.131Z,38.20
2023-05-21T19:22:24.793Z,38.20
2023-05-21T19:24:53.257Z,38.30
2023-05-21T19:27:21.485Z,38.40
2023-05-21T19:29:49.723Z,38.50
2023-05-21T19:32:17.802Z,38.60
2023-05-21T19:34:48.325Z,38.70
2023-05-21T19:37:16.717Z,39.00
2023-05-21T19:39:49.553Z,39.00
2023-05-21T19:42:18.303Z,39.10
2023-05-21T19:44:46.466Z,39.20
2023-05-21T19:47:14.639Z,39.30
2023-05-21T19:49:42.835Z,39.50
2023-05-21T19:52:12.782Z,39.60
2023-05-21T19:54:40.997Z,39.80
2023-05-21T19:57:11.546Z,39.90
2023-05-21T19:59:40.780Z,39.90
2023-05-21T20:02:13.269Z,40.10
2023-05-21T20:04:41.542Z,40.50
2023-05-21T20:07:09.496Z,40.40
2023-05-21T20:09:38.875Z,40.50
2023-05-21T20:12:07.839Z,40.70
2023-05-21T20:14:36.015Z,40.80
2023-05-21T20:17:05.585Z,40.90
2023-05-21T20:19:33.719Z,40.90
2023-05-21T20:22:01.664Z,41.00
2023-05-21T20:24:29.645Z,41.10
2023-05-21T20:26:58.951Z,41.20
2023-05-21T20:29:27.242Z,41.50
2023-05-21T20:31:55.295Z,41.50
2023-05-21T20:34:24.548Z,41.60
2023-05-21T20:36:52.900Z,41.70
2023-05-21T20:39:22.966Z,41.80
2023-05-21T20:41:51.330Z,41.90
2023-05-21T20:44:21.396Z,42.00
2023-05-21T20:46:49.559Z,42.20
2023-05-21T20:49:18.008Z,42.30
2023-05-21T20:51:46.347Z,42.40
2023-05-21T20:54:14.312Z,42.50
2023-05-21T20:56:45.003Z,42.70
2023-05-21T20:59:13.034Z,42.70
2023-05-21T21:01:42.704Z,42.90
2023-05-21T21:04:11.309Z,43.00
2023-05-21T21:06:40.565Z,43.10
2023-05-21T21:09:09.219Z,43.20
2023-05-21T21:11:37.238Z,43.30
2023-05-21T21:14:05.270Z,43.30
2023-05-21T21:16:33.485Z,43.40
2023-05-21T21:19:03.039Z,43.60
2023-05-21T21:21:31.795Z,43.70
2023-05-21T21:23:59.701Z,44.20
2023-05-21T21:26:28.279Z,43.80
2023-05-21T21:28:56.362Z,43.90
2023-05-21T21:31:25.173Z,44.00
2023-05-21T21:33:53.377Z,44.20
2023-05-21T21:36:23.204Z,44.20
2023-05-21T21:38:51.268Z,44.40
2023-05-21T21:41:20.233Z,44.40
2023-05-21T21:43:48.589Z,44.60
2023-05-21T21:46:16.879Z,44.70
2023-05-21T21:48:45.343Z,44.80
2023-05-21T21:51:14.038Z,44.90
2023-05-21T21:53:44.054Z,45.00
2023-05-21T21:56:12.123Z,45.10
2023-05-21T21:58:40.165Z,45.10
2023-05-21T22:01:08.112Z,45.20
2023-05-21T22:03:36.334Z,45.30
2023-05-21T22:06:04.288Z,45.40
2023-05-21T22:08:32.445Z,45.40
2023-05-21T22:11:02.138Z,45.60
2023-05-21T22:13:30.284Z,45.70
2023-05-21T22:15:58.280Z,45.70
2023-05-21T22:18:39.565Z,45.80
2023-05-21T22:21:09.220Z,45.90
2023-05-21T22:23:37.954Z,45.80
2023-05-21T22:26:07.636Z,46.00
2023-05-21T22:28:35.765Z,46.20
2023-05-21T22:31:04.150Z,46.10
2023-05-21T22:33:32.580Z,46.30
2023-05-21T22:36:00.465Z,46.40
2023-05-21T22:38:28.663Z,46.50
2023-05-21T22:40:57.007Z,46.50
2023-05-21T22:43:26.577Z,46.70
2023-05-21T22:45:54.747Z,46.90
2023-05-21T22:48:22.889Z,46.80
2023-05-21T22:50:53.580Z,46.90
2023-05-21T22:53:21.841Z,47.10
2023-05-21T22:55:50.003Z,47.20
2023-05-21T22:58:18.651Z,47.30
2023-05-21T23:00:47.996Z,47.40
2023-05-21T23:03:16.240Z,47.60
2023-05-21T23:05:45.191Z,47.50
2023-05-21T23:08:13.629Z,47.50
2023-05-21T23:10:41.839Z,47.50
2023-05-21T23:13:10.148Z,47.60
2023-05-21T23:15:39.149Z,47.80
2023-05-21T23:18:08.992Z,47.90
2023-05-21T23:20:40.998Z,48.00
2023-05-21T23:23:09.740Z,48.00
2023-05-21T23:25:37.815Z,48.10
2023-05-21T23:28:06.124Z,48.10
2023-05-21T23:30:34.142Z,48.20
2023-05-21T23:33:02.091Z,48.80
2023-05-21T23:35:31.752Z,48.30
2023-05-21T23:37:59.683Z,48.50
2023-05-21T23:40:27.630Z,48.50
2023-05-21T23:42:55.956Z,48.60
2023-05-21T23:45:24.007Z,48.60
2023-05-21T23:47:53.561Z,49.10
2023-05-21T23:50:21.744Z,48.80
2023-05-21T23:52:51.254Z,48.80
2023-05-21T23:55:19.221Z,48.90
2023-05-21T23:57:47.354Z,48.80
